sensor_id;sensor_type;location;lat;lon;timestamp;P1;durP1;ratioP1;P2;durP2;ratioP2
76348;SDS011;65172;46.764;15.406;2024-02-21T00:00:34;13.25;;;7.15;;
76348;SDS011;65172;46.764;15.406;2024-02-21T00:02:59;9.90;;;5.43;;
76348;SDS011;65172;46.764;15.406;2024-02-21T00:05:27;12.32;;;5.82;;
76348;SDS011;65172;46.764;15.406;2024-02-21T00:07:52;7.30;;;4.47;;
76348;SDS011;65172;46.764;15.406;2024-02-21T00:10:18;4.15;;;2.83;;
76348;SDS011;65172;46.764;15.406;2024-02-21T00:12:44;5.95;;;3.67;;
76348;SDS011;65172;46.764;15.406;2024-02-21T00:15:09;8.13;;;3.55;;
76348;SDS011;65172;46.764;15.406;2024-02-21T00:17:35;5.30;;;3.72;;
76348;SDS011;65172;46.764;15.406;2024-02-21T00:20:00;5.45;;;3.30;;
76348;SDS011;65172;46.764;15.406;2024-02-21T00:22:26;7.63;;;2.90;;
76348;SDS011;65172;46.764;15.406;2024-02-21T00:24:54;9.45;;;5.65;;
76348;SDS011;65172;46.764;15.406;2024-02-21T00:27:19;17.80;;;9.75;;
76348;SDS011;65172;46.764;15.406;2024-02-21T00:29:45;16.23;;;8.63;;
76348;SDS011;65172;46.764;15.406;2024-02-21T00:32:10;12.85;;;6.63;;
76348;SDS011;65172;46.764;15.406;2024-02-21T00:34:36;7.75;;;4.45;;
76348;SDS011;65172;46.764;15.406;2024-02-21T00:37:01;5.57;;;3.38;;
76348;SDS011;65172;46.764;15.406;2024-02-21T00:39:27;4.65;;;3.30;;
76348;SDS011;65172;46.764;15.406;2024-02-21T00:41:52;8.75;;;5.78;;
76348;SDS011;65172;46.764;15.406;2024-02-21T00:44:18;8.70;;;5.55;;
76348;SDS011;65172;46.764;15.406;2024-02-21T00:46:43;6.10;;;3.95;;
76348;SDS011;65172;46.764;15.406;2024-02-21T00:49:09;4.47;;;1.90;;
76348;SDS011;65172;46.764;15.406;2024-02-21T00:51:35;3.55;;;1.52;;
76348;SDS011;65172;46.764;15.406;2024-02-21T00:54:00;5.80;;;3.33;;
76348;SDS011;65172;46.764;15.406;2024-02-21T00:56:26;6.05;;;3.00;;
76348;SDS011;65172;46.764;15.406;2024-02-21T00:58:52;3.28;;;2.42;;
76348;SDS011;65172;46.764;15.406;2024-02-21T01:01:21;3.47;;;2.08;;
76348;SDS011;65172;46.764;15.406;2024-02-21T01:03:47;8.35;;;3.15;;
76348;SDS011;65172;46.764;15.406;2024-02-21T01:06:13;2.85;;;2.15;;
76348;SDS011;65172;46.764;15.406;2024-02-21T01:08:39;2.17;;;1.92;;
76348;SDS011;65172;46.764;15.406;2024-02-21T01:11:04;3.40;;;2.30;;
76348;SDS011;65172;46.764;15.406;2024-02-21T01:13:31;1.92;;;1.75;;
76348;SDS011;65172;46.764;15.406;2024-02-21T01:15:56;4.35;;;1.60;;
76348;SDS011;65172;46.764;15.406;2024-02-21T01:18:22;2.13;;;1.60;;
76348;SDS011;65172;46.764;15.406;2024-02-21T01:20:47;3.17;;;2.20;;
76348;SDS011;65172;46.764;15.406;2024-02-21T01:23:13;2.00;;;1.80;;
76348;SDS011;65172;46.764;15.406;2024-02-21T01:25:38;2.65;;;1.58;;
76348;SDS011;65172;46.764;15.406;2024-02-21T01:28:04;2.10;;;1.60;;
76348;SDS011;65172;46.764;15.406;2024-02-21T01:30:29;2.65;;;2.10;;
76348;SDS011;65172;46.764;15.406;2024-02-21T01:32:55;2.22;;;1.77;;
76348;SDS011;65172;46.764;15.406;2024-02-21T01:35:20;2.42;;;1.70;;
76348;SDS011;65172;46.764;15.406;2024-02-21T01:37:46;1.92;;;1.70;;
76348;SDS011;65172;46.764;15.406;2024-02-21T01:40:11;3.95;;;1.73;;
76348;SDS011;65172;46.764;15.406;2024-02-21T01:42:40;20.30;;;10.02;;
76348;SDS011;65172;46.764;15.406;2024-02-21T01:47:34;1.95;;;1.30;;
76348;SDS011;65172;46.764;15.406;2024-02-21T01:50:00;1.55;;;1.42;;
76348;SDS011;65172;46.764;15.406;2024-02-21T01:52:27;1.60;;;1.42;;
76348;SDS011;65172;46.764;15.406;2024-02-21T01:54:53;1.70;;;1.23;;
76348;SDS011;65172;46.764;15.406;2024-02-21T01:57:19;2.67;;;1.58;;
76348;SDS011;65172;46.764;15.406;2024-02-21T01:59:45;2.85;;;0.90;;
76348;SDS011;65172;46.764;15.406;2024-02-21T02:02:11;13.18;;;6.95;;
76348;SDS011;65172;46.764;15.406;2024-02-21T02:04:38;7.22;;;2.97;;
76348;SDS011;65172;46.764;15.406;2024-02-21T02:07:04;3.17;;;1.77;;
76348;SDS011;65172;46.764;15.406;2024-02-21T02:09:32;34.30;;;16.50;;
76348;SDS011;65172;46.764;15.406;2024-02-21T02:11:57;30.55;;;15.27;;
76348;SDS011;65172;46.764;15.406;2024-02-21T02:14:24;73.78;;;33.63;;
76348;SDS011;65172;46.764;15.406;2024-02-21T02:16:50;114.68;;;54.53;;
76348;SDS011;65172;46.764;15.406;2024-02-21T02:19:15;42.90;;;20.33;;
76348;SDS011;65172;46.764;15.406;2024-02-21T02:21:42;3.75;;;2.10;;
76348;SDS011;65172;46.764;15.406;2024-02-21T02:24:19;4.05;;;1.80;;
76348;SDS011;65172;46.764;15.406;2024-02-21T02:26:45;2.53;;;1.30;;
76348;SDS011;65172;46.764;15.406;2024-02-21T02:29:10;3.40;;;1.80;;
76348;SDS011;65172;46.764;15.406;2024-02-21T02:31:36;8.48;;;4.60;;
76348;SDS011;65172;46.764;15.406;2024-02-21T02:34:03;6.15;;;3.42;;
76348;SDS011;65172;46.764;15.406;2024-02-21T02:36:30;3.55;;;2.35;;
76348;SDS011;65172;46.764;15.406;2024-02-21T02:38:57;5.15;;;3.13;;
76348;SDS011;65172;46.764;15.406;2024-02-21T02:41:23;4.72;;;2.13;;
76348;SDS011;65172;46.764;15.406;2024-02-21T02:43:48;4.82;;;1.30;;
76348;SDS011;65172;46.764;15.406;2024-02-21T02:46:14;3.08;;;2.22;;
76348;SDS011;65172;46.764;15.406;2024-02-21T02:48:39;6.72;;;4.13;;
76348;SDS011;65172;46.764;15.406;2024-02-21T02:51:05;5.05;;;3.85;;
76348;SDS011;65172;46.764;15.406;2024-02-21T02:53:30;2.60;;;1.80;;
76348;SDS011;65172;46.764;15.406;2024-02-21T02:55:56;3.25;;;1.30;;
76348;SDS011;65172;46.764;15.406;2024-02-21T02:58:21;1.85;;;1.30;;
76348;SDS011;65172;46.764;15.406;2024-02-21T03:00:47;2.20;;;1.23;;
76348;SDS011;65172;46.764;15.406;2024-02-21T03:03:12;2.78;;;1.73;;
76348;SDS011;65172;46.764;15.406;2024-02-21T03:05:38;3.00;;;1.35;;
76348;SDS011;65172;46.764;15.406;2024-02-21T03:08:03;3.00;;;1.80;;
76348;SDS011;65172;46.764;15.406;2024-02-21T03:10:35;2.22;;;1.40;;
76348;SDS011;65172;46.764;15.406;2024-02-21T03:13:00;1.70;;;1.60;;
76348;SDS011;65172;46.764;15.406;2024-02-21T03:15:26;6.32;;;3.17;;
76348;SDS011;65172;46.764;15.406;2024-02-21T03:17:51;2.20;;;1.65;;
76348;SDS011;65172;46.764;15.406;2024-02-21T03:20:17;4.13;;;1.65;;
76348;SDS011;65172;46.764;15.406;2024-02-21T03:22:43;1.77;;;1.60;;
76348;SDS011;65172;46.764;15.406;2024-02-21T03:25:09;2.10;;;1.85;;
76348;SDS011;65172;46.764;15.406;2024-02-21T03:27:35;1.70;;;1.40;;
76348;SDS011;65172;46.764;15.406;2024-02-21T03:30:01;2.22;;;1.20;;
76348;SDS011;65172;46.764;15.406;2024-02-21T03:32:26;2.60;;;1.90;;
76348;SDS011;65172;46.764;15.406;2024-02-21T03:34:53;1.40;;;1.20;;
76348;SDS011;65172;46.764;15.406;2024-02-21T03:37:20;1.75;;;1.15;;
76348;SDS011;65172;46.764;15.406;2024-02-21T03:39:45;1.52;;;1.30;;
76348;SDS011;65172;46.764;15.406;2024-02-21T03:42:11;14.68;;;3.95;;
76348;SDS011;65172;46.764;15.406;2024-02-21T03:44:36;58.50;;;20.13;;
76348;SDS011;65172;46.764;15.406;2024-02-21T03:47:02;2.88;;;2.13;;
76348;SDS011;65172;46.764;15.406;2024-02-21T03:49:29;2.33;;;1.70;;
76348;SDS011;65172;46.764;15.406;2024-02-21T03:51:54;4.25;;;2.00;;
76348;SDS011;65172;46.764;15.406;2024-02-21T03:54:20;3.08;;;1.90;;
76348;SDS011;65172;46.764;15.406;2024-02-21T03:56:45;2.58;;;1.90;;
76348;SDS011;65172;46.764;15.406;2024-02-21T03:59:12;2.70;;;1.95;;
76348;SDS011;65172;46.764;15.406;2024-02-21T04:01:38;3.33;;;2.30;;
76348;SDS011;65172;46.764;15.406;2024-02-21T04:04:04;4.70;;;2.25;;
76348;SDS011;65172;46.764;15.406;2024-02-21T04:06:29;3.08;;;2.25;;
76348;SDS011;65172;46.764;15.406;2024-02-21T04:08:55;2.67;;;1.70;;
76348;SDS011;65172;46.764;15.406;2024-02-21T04:11:20;3.15;;;1.65;;
76348;SDS011;65172;46.764;15.406;2024-02-21T04:13:46;3.13;;;1.67;;
76348;SDS011;65172;46.764;15.406;2024-02-21T04:16:14;3.08;;;1.52;;
76348;SDS011;65172;46.764;15.406;2024-02-21T04:18:40;8.82;;;6.07;;
76348;SDS011;65172;46.764;15.406;2024-02-21T04:21:06;3.33;;;1.63;;
76348;SDS011;65172;46.764;15.406;2024-02-21T04:23:31;3.55;;;2.10;;
76348;SDS011;65172;46.764;15.406;2024-02-21T04:25:57;2.03;;;1.70;;
76348;SDS011;65172;46.764;15.406;2024-02-21T04:28:22;3.13;;;1.83;;
76348;SDS011;65172;46.764;15.406;2024-02-21T04:30:48;1.85;;;1.50;;
76348;SDS011;65172;46.764;15.406;2024-02-21T04:33:13;3.35;;;1.50;;
76348;SDS011;65172;46.764;15.406;2024-02-21T04:35:39;1.65;;;1.52;;
76348;SDS011;65172;46.764;15.406;2024-02-21T04:38:04;2.72;;;2.30;;
76348;SDS011;65172;46.764;15.406;2024-02-21T04:40:30;3.42;;;2.38;;
76348;SDS011;65172;46.764;15.406;2024-02-21T04:42:56;4.38;;;2.22;;
76348;SDS011;65172;46.764;15.406;2024-02-21T04:45:22;3.00;;;1.40;;
76348;SDS011;65172;46.764;15.406;2024-02-21T04:47:48;2.15;;;1.42;;
76348;SDS011;65172;46.764;15.406;2024-02-21T04:50:13;1.83;;;1.30;;
76348;SDS011;65172;46.764;15.406;2024-02-21T04:52:39;3.65;;;1.38;;
76348;SDS011;65172;46.764;15.406;2024-02-21T04:55:05;1.63;;;1.10;;
76348;SDS011;65172;46.764;15.406;2024-02-21T04:57:31;1.88;;;1.00;;
76348;SDS011;65172;46.764;15.406;2024-02-21T04:59:57;3.90;;;1.30;;
76348;SDS011;65172;46.764;15.406;2024-02-21T05:02:22;3.03;;;1.10;;
76348;SDS011;65172;46.764;15.406;2024-02-21T05:04:49;1.13;;;1.02;;
76348;SDS011;65172;46.764;15.406;2024-02-21T05:07:15;1.88;;;1.40;;
76348;SDS011;65172;46.764;15.406;2024-02-21T05:09:44;3.17;;;1.50;;
76348;SDS011;65172;46.764;15.406;2024-02-21T05:12:09;3.08;;;1.40;;
76348;SDS011;65172;46.764;15.406;2024-02-21T05:14:35;2.88;;;1.92;;
76348;SDS011;65172;46.764;15.406;2024-02-21T05:17:00;7.85;;;6.60;;
76348;SDS011;65172;46.764;15.406;2024-02-21T05:19:26;3.75;;;3.05;;
76348;SDS011;65172;46.764;15.406;2024-02-21T05:21:51;4.45;;;2.53;;
76348;SDS011;65172;46.764;15.406;2024-02-21T05:24:16;6.53;;;3.10;;
76348;SDS011;65172;46.764;15.406;2024-02-21T05:26:42;6.28;;;2.00;;
76348;SDS011;65172;46.764;15.406;2024-02-21T05:29:08;1.98;;;1.58;;
76348;SDS011;65172;46.764;15.406;2024-02-21T05:34:28;1.88;;;1.23;;
76348;SDS011;65172;46.764;15.406;2024-02-21T05:36:53;2.75;;;1.60;;
76348;SDS011;65172;46.764;15.406;2024-02-21T05:39:19;4.28;;;1.50;;
76348;SDS011;65172;46.764;15.406;2024-02-21T05:41:45;2.85;;;1.55;;
76348;SDS011;65172;46.764;15.406;2024-02-21T05:44:11;3.45;;;2.58;;
76348;SDS011;65172;46.764;15.406;2024-02-21T05:46:37;3.70;;;1.83;;
76348;SDS011;65172;46.764;15.406;2024-02-21T05:49:02;4.18;;;1.67;;
76348;SDS011;65172;46.764;15.406;2024-02-21T05:51:31;6.72;;;1.63;;
76348;SDS011;65172;46.764;15.406;2024-02-21T05:53:57;3.50;;;1.70;;
76348;SDS011;65172;46.764;15.406;2024-02-21T05:56:23;3.17;;;1.48;;
76348;SDS011;65172;46.764;15.406;2024-02-21T05:58:48;2.30;;;1.30;;
76348;SDS011;65172;46.764;15.406;2024-02-21T06:01:14;1.30;;;1.20;;
76348;SDS011;65172;46.764;15.406;2024-02-21T06:03:39;4.53;;;3.33;;
76348;SDS011;65172;46.764;15.406;2024-02-21T06:06:05;4.57;;;3.25;;
76348;SDS011;65172;46.764;15.406;2024-02-21T06:08:31;1.98;;;1.23;;
76348;SDS011;65172;46.764;15.406;2024-02-21T06:10:56;1.42;;;1.33;;
76348;SDS011;65172;46.764;15.406;2024-02-21T06:13:23;2.33;;;1.30;;
76348;SDS011;65172;46.764;15.406;2024-02-21T06:15:49;1.77;;;1.13;;
76348;SDS011;65172;46.764;15.406;2024-02-21T06:18:15;1.70;;;1.45;;
76348;SDS011;65172;46.764;15.406;2024-02-21T06:20:44;2.95;;;1.40;;
76348;SDS011;65172;46.764;15.406;2024-02-21T06:23:09;1.85;;;1.40;;
76348;SDS011;65172;46.764;15.406;2024-02-21T06:25:35;3.17;;;2.47;;
76348;SDS011;65172;46.764;15.406;2024-02-21T06:28:02;3.88;;;2.47;;
76348;SDS011;65172;46.764;15.406;2024-02-21T06:30:27;18.35;;;9.52;;
76348;SDS011;65172;46.764;15.406;2024-02-21T06:32:53;12.27;;;6.72;;
76348;SDS011;65172;46.764;15.406;2024-02-21T06:35:21;7.05;;;4.43;;
76348;SDS011;65172;46.764;15.406;2024-02-21T06:37:46;2.83;;;2.05;;
76348;SDS011;65172;46.764;15.406;2024-02-21T06:40:16;10.18;;;3.55;;
76348;SDS011;65172;46.764;15.406;2024-02-21T06:42:42;3.90;;;1.67;;
76348;SDS011;65172;46.764;15.406;2024-02-21T06:45:07;1.30;;;1.20;;
76348;SDS011;65172;46.764;15.406;2024-02-21T06:47:33;3.53;;;1.70;;
76348;SDS011;65172;46.764;15.406;2024-02-21T06:49:58;2.78;;;1.33;;
76348;SDS011;65172;46.764;15.406;2024-02-21T06:52:24;1.65;;;1.10;;
76348;SDS011;65172;46.764;15.406;2024-02-21T06:54:50;1.58;;;1.20;;
76348;SDS011;65172;46.764;15.406;2024-02-21T06:57:15;2.05;;;1.25;;
76348;SDS011;65172;46.764;15.406;2024-02-21T06:59:41;1.30;;;1.20;;
76348;SDS011;65172;46.764;15.406;2024-02-21T07:02:07;3.10;;;1.45;;
76348;SDS011;65172;46.764;15.406;2024-02-21T07:04:33;1.73;;;1.20;;
76348;SDS011;65172;46.764;15.406;2024-02-21T07:06:59;7.13;;;1.55;;
76348;SDS011;65172;46.764;15.406;2024-02-21T07:09:24;4.60;;;1.27;;
76348;SDS011;65172;46.764;15.406;2024-02-21T07:11:50;1.77;;;1.38;;
76348;SDS011;65172;46.764;15.406;2024-02-21T07:14:15;2.70;;;1.33;;
76348;SDS011;65172;46.764;15.406;2024-02-21T07:16:41;1.65;;;1.40;;
76348;SDS011;65172;46.764;15.406;2024-02-21T07:19:06;2.90;;;1.20;;
76348;SDS011;65172;46.764;15.406;2024-02-21T07:21:32;3.90;;;1.20;;
76348;SDS011;65172;46.764;15.406;2024-02-21T07:23:57;2.05;;;1.30;;
76348;SDS011;65172;46.764;15.406;2024-02-21T07:26:23;1.95;;;1.10;;
76348;SDS011;65172;46.764;15.406;2024-02-21T07:28:48;3.00;;;1.20;;
76348;SDS011;65172;46.764;15.406;2024-02-21T07:31:14;3.05;;;1.23;;
76348;SDS011;65172;46.764;15.406;2024-02-21T07:33:39;3.33;;;1.13;;
76348;SDS011;65172;46.764;15.406;2024-02-21T07:36:07;3.05;;;1.63;;
76348;SDS011;65172;46.764;15.406;2024-02-21T07:38:35;2.53;;;1.08;;
76348;SDS011;65172;46.764;15.406;2024-02-21T07:41:01;3.03;;;1.00;;
76348;SDS011;65172;46.764;15.406;2024-02-21T07:43:27;1.48;;;0.90;;
76348;SDS011;65172;46.764;15.406;2024-02-21T07:45:53;1.73;;;1.00;;
76348;SDS011;65172;46.764;15.406;2024-02-21T07:48:18;2.63;;;1.05;;
76348;SDS011;65172;46.764;15.406;2024-02-21T07:50:44;1.35;;;1.20;;
76348;SDS011;65172;46.764;15.406;2024-02-21T07:53:10;2.10;;;1.20;;
76348;SDS011;65172;46.764;15.406;2024-02-21T07:55:35;1.98;;;1.00;;
76348;SDS011;65172;46.764;15.406;2024-02-21T07:58:01;5.10;;;1.20;;
76348;SDS011;65172;46.764;15.406;2024-02-21T08:00:26;3.17;;;0.90;;
76348;SDS011;65172;46.764;15.406;2024-02-21T08:02:52;4.93;;;1.02;;
76348;SDS011;65172;46.764;15.406;2024-02-21T08:05:17;1.88;;;0.90;;
76348;SDS011;65172;46.764;15.406;2024-02-21T08:07:43;1.73;;;0.70;;
76348;SDS011;65172;46.764;15.406;2024-02-21T08:10:08;2.70;;;1.42;;
76348;SDS011;65172;46.764;15.406;2024-02-21T08:12:35;4.13;;;1.88;;
76348;SDS011;65172;46.764;15.406;2024-02-21T08:15:00;1.77;;;1.17;;
76348;SDS011;65172;46.764;15.406;2024-02-21T08:17:28;4.35;;;1.00;;
76348;SDS011;65172;46.764;15.406;2024-02-21T08:19:54;2.22;;;1.20;;
76348;SDS011;65172;46.764;15.406;2024-02-21T08:22:19;1.55;;;1.40;;
76348;SDS011;65172;46.764;15.406;2024-02-21T08:24:45;3.78;;;1.40;;
76348;SDS011;65172;46.764;15.406;2024-02-21T08:27:11;2.20;;;1.20;;
76348;SDS011;65172;46.764;15.406;2024-02-21T08:29:36;2.53;;;1.17;;
76348;SDS011;65172;46.764;15.406;2024-02-21T08:32:02;2.65;;;1.30;;
76348;SDS011;65172;46.764;15.406;2024-02-21T08:34:27;1.85;;;1.15;;
76348;SDS011;65172;46.764;15.406;2024-02-21T08:36:55;5.68;;;1.42;;
76348;SDS011;65172;46.764;15.406;2024-02-21T08:39:21;3.63;;;1.38;;
76348;SDS011;65172;46.764;15.406;2024-02-21T08:41:46;3.58;;;1.20;;
76348;SDS011;65172;46.764;15.406;2024-02-21T08:44:12;3.22;;;1.50;;
76348;SDS011;65172;46.764;15.406;2024-02-21T08:46:37;1.65;;;1.10;;
76348;SDS011;65172;46.764;15.406;2024-02-21T08:49:05;3.50;;;1.05;;
76348;SDS011;65172;46.764;15.406;2024-02-21T08:51:31;2.45;;;1.20;;
76348;SDS011;65172;46.764;15.406;2024-02-21T08:53:57;2.20;;;1.40;;
76348;SDS011;65172;46.764;15.406;2024-02-21T08:56:23;1.73;;;1.25;;
76348;SDS011;65172;46.764;15.406;2024-02-21T08:58:49;5.70;;;1.38;;
76348;SDS011;65172;46.764;15.406;2024-02-21T09:01:15;1.63;;;1.30;;
76348;SDS011;65172;46.764;15.406;2024-02-21T09:03:40;6.70;;;1.92;;
76348;SDS011;65172;46.764;15.406;2024-02-21T09:06:06;4.20;;;1.90;;
76348;SDS011;65172;46.764;15.406;2024-02-21T09:08:32;2.40;;;1.70;;
76348;SDS011;65172;46.764;15.406;2024-02-21T09:10:58;4.13;;;1.50;;
76348;SDS011;65172;46.764;15.406;2024-02-21T09:13:25;2.05;;;1.38;;
76348;SDS011;65172;46.764;15.406;2024-02-21T09:15:50;7.65;;;3.72;;
76348;SDS011;65172;46.764;15.406;2024-02-21T09:18:16;9.63;;;1.90;;
76348;SDS011;65172;46.764;15.406;2024-02-21T09:20:42;1.48;;;1.17;;
76348;SDS011;65172;46.764;15.406;2024-02-21T09:23:08;10.35;;;4.32;;
76348;SDS011;65172;46.764;15.406;2024-02-21T09:25:33;37.15;;;15.07;;
76348;SDS011;65172;46.764;15.406;2024-02-21T09:28:00;39.83;;;18.27;;
76348;SDS011;65172;46.764;15.406;2024-02-21T09:30:27;14.13;;;6.78;;
76348;SDS011;65172;46.764;15.406;2024-02-21T09:32:52;2.72;;;1.55;;
76348;SDS011;65172;46.764;15.406;2024-02-21T09:35:18;5.75;;;2.95;;
76348;SDS011;65172;46.764;15.406;2024-02-21T09:37:44;16.27;;;7.72;;
76348;SDS011;65172;46.764;15.406;2024-02-21T09:40:09;16.08;;;7.43;;
76348;SDS011;65172;46.764;15.406;2024-02-21T09:42:39;16.15;;;7.57;;
76348;SDS011;65172;46.764;15.406;2024-02-21T09:45:21;4.82;;;2.60;;
76348;SDS011;65172;46.764;15.406;2024-02-21T09:50:33;9.82;;;4.05;;
76348;SDS011;65172;46.764;15.406;2024-02-21T09:53:00;1.55;;;1.30;;
76348;SDS011;65172;46.764;15.406;2024-02-21T09:55:27;22.35;;;9.60;;
76348;SDS011;65172;46.764;15.406;2024-02-21T09:57:54;12.35;;;7.10;;
76348;SDS011;65172;46.764;15.406;2024-02-21T10:00:21;18.20;;;10.60;;
76348;SDS011;65172;46.764;15.406;2024-02-21T10:02:50;15.07;;;8.23;;
76348;SDS011;65172;46.764;15.406;2024-02-21T10:05:16;7.88;;;3.60;;
76348;SDS011;65172;46.764;15.406;2024-02-21T10:07:43;25.77;;;15.85;;
76348;SDS011;65172;46.764;15.406;2024-02-21T10:10:09;19.30;;;12.75;;
76348;SDS011;65172;46.764;15.406;2024-02-21T10:12:35;2.03;;;1.20;;
76348;SDS011;65172;46.764;15.406;2024-02-21T10:15:01;7.05;;;5.20;;
76348;SDS011;65172;46.764;15.406;2024-02-21T10:17:27;4.85;;;2.30;;
76348;SDS011;65172;46.764;15.406;2024-02-21T10:19:52;0.90;;;0.90;;
76348;SDS011;65172;46.764;15.406;2024-02-21T10:22:18;1.20;;;0.90;;
76348;SDS011;65172;46.764;15.406;2024-02-21T10:24:45;1.10;;;1.00;;
76348;SDS011;65172;46.764;15.406;2024-02-21T10:27:11;3.38;;;1.20;;
76348;SDS011;65172;46.764;15.406;2024-02-21T10:29:37;2.55;;;1.00;;
76348;SDS011;65172;46.764;15.406;2024-02-21T10:32:09;1.25;;;1.00;;
76348;SDS011;65172;46.764;15.406;2024-02-21T10:34:39;1.13;;;0.88;;
76348;SDS011;65172;46.764;15.406;2024-02-21T10:37:09;3.55;;;1.10;;
76348;SDS011;65172;46.764;15.406;2024-02-21T10:39:37;0.93;;;0.93;;
76348;SDS011;65172;46.764;15.406;2024-02-21T10:42:03;0.93;;;0.90;;
76348;SDS011;65172;46.764;15.406;2024-02-21T10:44:30;2.25;;;1.50;;
76348;SDS011;65172;46.764;15.406;2024-02-21T10:46:57;1.02;;;0.95;;
76348;SDS011;65172;46.764;15.406;2024-02-21T10:49:23;1.80;;;1.45;;
76348;SDS011;65172;46.764;15.406;2024-02-21T10:52:03;1.58;;;1.08;;
76348;SDS011;65172;46.764;15.406;2024-02-21T10:57:18;1.15;;;0.90;;
76348;SDS011;65172;46.764;15.406;2024-02-21T10:59:44;1.20;;;0.90;;
76348;SDS011;65172;46.764;15.406;2024-02-21T11:02:10;1.88;;;1.00;;
76348;SDS011;65172;46.764;15.406;2024-02-21T11:04:36;2.42;;;1.23;;
76348;SDS011;65172;46.764;15.406;2024-02-21T11:07:03;1.10;;;0.90;;
76348;SDS011;65172;46.764;15.406;2024-02-21T11:09:30;1.02;;;0.90;;
76348;SDS011;65172;46.764;15.406;2024-02-21T11:12:02;2.05;;;1.00;;
76348;SDS011;65172;46.764;15.406;2024-02-21T11:14:28;1.83;;;0.95;;
76348;SDS011;65172;46.764;15.406;2024-02-21T11:16:57;1.17;;;0.90;;
76348;SDS011;65172;46.764;15.406;2024-02-21T11:19:26;2.47;;;0.98;;
76348;SDS011;65172;46.764;15.406;2024-02-21T11:21:52;4.55;;;1.00;;
76348;SDS011;65172;46.764;15.406;2024-02-21T11:24:29;3.63;;;1.08;;
76348;SDS011;65172;46.764;15.406;2024-02-21T11:26:56;1.30;;;1.20;;
76348;SDS011;65172;46.764;15.406;2024-02-21T11:29:49;1.08;;;1.02;;
76348;SDS011;65172;46.764;15.406;2024-02-21T11:32:23;1.95;;;0.70;;
76348;SDS011;65172;46.764;15.406;2024-02-21T11:34:56;1.40;;;1.10;;
76348;SDS011;65172;46.764;15.406;2024-02-21T11:37:26;1.45;;;0.90;;
76348;SDS011;65172;46.764;15.406;2024-02-21T11:39:53;1.95;;;1.17;;
76348;SDS011;65172;46.764;15.406;2024-02-21T11:42:24;2.10;;;1.30;;
76348;SDS011;65172;46.764;15.406;2024-02-21T11:44:50;1.23;;;0.93;;
76348;SDS011;65172;46.764;15.406;2024-02-21T11:47:16;1.23;;;1.00;;
76348;SDS011;65172;46.764;15.406;2024-02-21T11:49:46;1.25;;;0.90;;
76348;SDS011;65172;46.764;15.406;2024-02-21T11:52:14;1.40;;;1.00;;
76348;SDS011;65172;46.764;15.406;2024-02-21T11:54:44;2.67;;;1.13;;
76348;SDS011;65172;46.764;15.406;2024-02-21T11:57:10;2.50;;;1.30;;
76348;SDS011;65172;46.764;15.406;2024-02-21T11:59:36;1.05;;;0.90;;
76348;SDS011;65172;46.764;15.406;2024-02-21T12:02:02;1.35;;;1.10;;
76348;SDS011;65172;46.764;15.406;2024-02-21T12:04:31;1.48;;;1.10;;
76348;SDS011;65172;46.764;15.406;2024-02-21T12:06:57;2.17;;;1.10;;
76348;SDS011;65172;46.764;15.406;2024-02-21T12:09:23;2.25;;;1.02;;
76348;SDS011;65172;46.764;15.406;2024-02-21T12:12:07;2.17;;;1.23;;
76348;SDS011;65172;46.764;15.406;2024-02-21T12:14:33;1.33;;;0.90;;
76348;SDS011;65172;46.764;15.406;2024-02-21T12:17:00;1.17;;;1.00;;
76348;SDS011;65172;46.764;15.406;2024-02-21T12:19:28;2.03;;;0.90;;
76348;SDS011;65172;46.764;15.406;2024-02-21T12:21:54;0.80;;;0.80;;
76348;SDS011;65172;46.764;15.406;2024-02-21T12:24:26;1.35;;;0.90;;
76348;SDS011;65172;46.764;15.406;2024-02-21T12:26:53;0.88;;;0.88;;
76348;SDS011;65172;46.764;15.406;2024-02-21T12:29:19;2.83;;;1.10;;
76348;SDS011;65172;46.764;15.406;2024-02-21T12:31:45;4.28;;;1.30;;
76348;SDS011;65172;46.764;15.406;2024-02-21T12:34:11;1.92;;;1.10;;
76348;SDS011;65172;46.764;15.406;2024-02-21T12:36:43;1.95;;;1.02;;
76348;SDS011;65172;46.764;15.406;2024-02-21T12:39:10;1.23;;;1.08;;
76348;SDS011;65172;46.764;15.406;2024-02-21T12:41:36;1.92;;;1.08;;
76348;SDS011;65172;46.764;15.406;2024-02-21T12:44:06;4.22;;;1.30;;
76348;SDS011;65172;46.764;15.406;2024-02-21T12:46:36;2.20;;;0.95;;
76348;SDS011;65172;46.764;15.406;2024-02-21T12:49:02;4.10;;;1.30;;
76348;SDS011;65172;46.764;15.406;2024-02-21T12:51:28;2.17;;;1.35;;
76348;SDS011;65172;46.764;15.406;2024-02-21T12:53:54;1.35;;;1.00;;
76348;SDS011;65172;46.764;15.406;2024-02-21T12:56:20;1.85;;;1.15;;
76348;SDS011;65172;46.764;15.406;2024-02-21T12:58:45;1.95;;;1.13;;
76348;SDS011;65172;46.764;15.406;2024-02-21T13:01:11;2.60;;;1.13;;
76348;SDS011;65172;46.764;15.406;2024-02-21T13:03:36;4.10;;;1.42;;
76348;SDS011;65172;46.764;15.406;2024-02-21T13:06:03;1.15;;;1.05;;
76348;SDS011;65172;46.764;15.406;2024-02-21T13:08:29;2.55;;;1.60;;
76348;SDS011;65172;46.764;15.406;2024-02-21T13:10:54;1.63;;;1.27;;
76348;SDS011;65172;46.764;15.406;2024-02-21T13:13:20;1.80;;;1.20;;
76348;SDS011;65172;46.764;15.406;2024-02-21T13:15:45;2.55;;;1.60;;
76348;SDS011;65172;46.764;15.406;2024-02-21T13:18:11;3.90;;;1.50;;
76348;SDS011;65172;46.764;15.406;2024-02-21T13:20:36;1.98;;;1.40;;
76348;SDS011;65172;46.764;15.406;2024-02-21T13:23:02;1.75;;;1.35;;
76348;SDS011;65172;46.764;15.406;2024-02-21T13:25:28;3.10;;;1.30;;
76348;SDS011;65172;46.764;15.406;2024-02-21T13:27:54;2.03;;;1.20;;
76348;SDS011;65172;46.764;15.406;2024-02-21T13:30:20;2.38;;;1.30;;
76348;SDS011;65172;46.764;15.406;2024-02-21T13:32:45;4.72;;;2.60;;
76348;SDS011;65172;46.764;15.406;2024-02-21T13:35:11;6.07;;;2.45;;
76348;SDS011;65172;46.764;15.406;2024-02-21T13:37:40;1.92;;;1.13;;
76348;SDS011;65172;46.764;15.406;2024-02-21T13:40:07;1.77;;;1.48;;
76348;SDS011;65172;46.764;15.406;2024-02-21T13:42:39;1.15;;;0.95;;
76348;SDS011;65172;46.764;15.406;2024-02-21T13:45:05;3.33;;;1.67;;
76348;SDS011;65172;46.764;15.406;2024-02-21T13:47:31;1.92;;;1.50;;
76348;SDS011;65172;46.764;15.406;2024-02-21T13:49:57;4.90;;;1.50;;
76348;SDS011;65172;46.764;15.406;2024-02-21T13:52:23;1.40;;;1.30;;
76348;SDS011;65172;46.764;15.406;2024-02-21T13:54:51;9.00;;;1.60;;
76348;SDS011;65172;46.764;15.406;2024-02-21T13:57:17;2.78;;;1.80;;
76348;SDS011;65172;46.764;15.406;2024-02-21T13:59:43;3.67;;;1.85;;
76348;SDS011;65172;46.764;15.406;2024-02-21T14:02:08;1.80;;;1.40;;
76348;SDS011;65172;46.764;15.406;2024-02-21T14:04:34;1.60;;;1.38;;
76348;SDS011;65172;46.764;15.406;2024-02-21T14:07:00;2.85;;;1.17;;
76348;SDS011;65172;46.764;15.406;2024-02-21T14:09:26;1.85;;;1.48;;
76348;SDS011;65172;46.764;15.406;2024-02-21T14:11:51;12.70;;;2.65;;
76348;SDS011;65172;46.764;15.406;2024-02-21T14:14:17;1.67;;;1.27;;
76348;SDS011;65172;46.764;15.406;2024-02-21T14:16:43;2.90;;;1.95;;
76348;SDS011;65172;46.764;15.406;2024-02-21T14:19:08;5.50;;;1.60;;
76348;SDS011;65172;46.764;15.406;2024-02-21T14:21:34;2.67;;;1.40;;
76348;SDS011;65172;46.764;15.406;2024-02-21T14:24:04;2.13;;;1.48;;
76348;SDS011;65172;46.764;15.406;2024-02-21T14:26:30;4.95;;;1.48;;
76348;SDS011;65172;46.764;15.406;2024-02-21T14:28:56;2.47;;;1.70;;
76348;SDS011;65172;46.764;15.406;2024-02-21T14:31:25;7.03;;;3.45;;
76348;SDS011;65172;46.764;15.406;2024-02-21T14:33:51;1.88;;;1.67;;
76348;SDS011;65172;46.764;15.406;2024-02-21T14:36:17;4.78;;;1.50;;
76348;SDS011;65172;46.764;15.406;2024-02-21T14:38:43;2.35;;;1.50;;